Time;durP1;ratioP1;P1;durP2;ratioP2;P2;SDS_P1;SDS_P2;PMS_P1;PMS_P2;Temp;Humidity;BMP_temperature;BMP_pressure;BME280_temperature;BME280_humidity;BME280_pressure;Samples;Min_cycle;Max_cycle;Signal;HPM_P1;HPM_P2
2023/08/29 00:02:24;;;;;;;6.30;4.05;;;15.50;99.90;;;;;;4879679;29;20040;-74
2023/08/29 00:04:50;;;;;;;7.65;3.78;;;15.50;99.90;;;;;;4882196;29;20071;-73
2023/08/29 00:07:15;;;;;;;4.95;3.85;;;15.40;99.90;;;;;;4879872;29;20484;-71
2023/08/29 00:09:41;;;;;;;6.53;3.95;;;15.40;99.90;;;;;;4879721;29;20049;-72
2023/08/29 00:12:07;;;;;;;7.55;3.90;;;15.40;99.90;;;;;;4880804;29;20045;-72
2023/08/29 00:14:33;;;;;;;6.18;3.80;;;15.30;99.90;;;;;;4879087;29;20163;-72
2023/08/29 00:16:59;;;;;;;9.27;3.90;;;15.30;99.90;;;;;;4880733;29;20055;-73
2023/08/29 00:19:25;;;;;;;10.20;4.30;;;15.30;99.90;;;;;;4879509;29;20044;-73
2023/08/29 00:21:51;;;;;;;7.28;4.00;;;15.30;99.90;;;;;;4879077;29;20053;-72
2023/08/29 00:24:17;;;;;;;8.07;3.65;;;15.30;99.90;;;;;;4879372;29;20049;-72
2023/08/29 00:26:42;;;;;;;6.63;4.00;;;15.20;99.90;;;;;;4879085;29;20048;-75
2023/08/29 00:29:08;;;;;;;6.90;3.50;;;15.20;99.90;;;;;;4882960;29;20479;-72
2023/08/29 00:31:34;;;;;;;6.00;3.42;;;15.20;99.90;;;;;;4879453;29;20406;-73
2023/08/29 00:33:59;;;;;;;7.38;4.05;;;15.20;99.90;;;;;;4880652;29;20100;-75
2023/08/29 00:36:25;;;;;;;6.75;4.00;;;15.10;99.90;;;;;;4878984;29;20360;-80
2023/08/29 00:38:51;;;;;;;4.88;3.58;;;15.10;99.90;;;;;;4878305;29;20056;-73
2023/08/29 00:41:16;;;;;;;5.85;3.75;;;15.00;99.90;;;;;;4883482;29;20487;-71
2023/08/29 00:43:42;;;;;;;5.40;3.80;;;15.00;99.90;;;;;;4878216;29;20094;-72
2023/08/29 00:46:08;;;;;;;7.13;3.65;;;15.00;99.90;;;;;;4878857;29;20407;-72
2023/08/29 00:48:34;;;;;;;6.88;3.60;;;14.90;99.90;;;;;;4879246;29;20104;-73
2023/08/29 00:51:00;;;;;;;7.20;3.50;;;14.80;99.90;;;;;;4879762;29;20103;-74
2023/08/29 00:53:27;;;;;;;4.85;3.78;;;14.80;99.90;;;;;;4848724;29;20507;-73
2023/08/29 00:55:53;;;;;;;4.93;3.70;;;14.80;99.90;;;;;;4878078;29;20076;-73
2023/08/29 00:58:19;;;;;;;6.45;3.78;;;14.80;99.90;;;;;;4865231;29;20041;-73
2023/08/29 01:00:46;;;;;;;6.72;3.90;;;14.80;99.90;;;;;;4862309;29;20064;-73
2023/08/29 01:03:11;;;;;;;7.60;4.18;;;14.70;99.90;;;;;;4877683;29;20060;-73
2023/08/29 01:05:37;;;;;;;6.00;4.30;;;14.70;99.90;;;;;;4863758;29;20052;-73
2023/08/29 01:08:04;;;;;;;8.43;3.92;;;14.70;99.90;;;;;;4885579;29;20045;-73
2023/08/29 01:10:48;;;;;;;6.97;3.80;;;14.70;99.90;;;;;;4879488;29;20101;-72
2023/08/29 01:13:35;;;;;;;7.88;3.88;;;14.60;99.90;;;;;;4879364;29;20098;-72
2023/08/29 01:16:05;;;;;;;5.00;3.78;;;14.60;99.90;;;;;;4878278;29;20061;-73
2023/08/29 01:18:32;;;;;;;6.45;3.63;;;14.60;99.90;;;;;;4863588;29;20522;-73
2023/08/29 01:21:28;;;;;;;8.32;3.63;;;14.50;99.90;;;;;;4877955;29;20082;-74
2023/08/29 01:24:19;;;;;;;4.95;3.60;;;14.60;99.90;;;;;;4876600;29;20060;-72
2023/08/29 01:26:46;;;;;;;5.55;3.78;;;14.50;99.90;;;;;;4877930;29;20049;-73
2023/08/29 01:29:13;;;;;;;6.28;3.92;;;14.40;99.90;;;;;;4862306;29;20077;-70
2023/08/29 01:31:40;;;;;;;6.07;3.80;;;14.40;99.90;;;;;;4862719;29;20063;-70
2023/08/29 01:34:06;;;;;;;6.18;3.90;;;14.40;99.90;;;;;;4863068;29;20403;-70
2023/08/29 01:36:42;;;;;;;9.05;4.07;;;14.30;99.90;;;;;;4878803;29;20067;-70
2023/08/29 01:39:08;;;;;;;5.80;3.90;;;14.30;99.90;;;;;;4862845;29;20040;-70
2023/08/29 01:41:33;;;;;;;8.27;4.32;;;14.30;99.90;;;;;;4878331;29;20084;-69
2023/08/29 01:44:04;;;;;;;5.30;3.78;;;14.30;99.90;;;;;;4877690;29;20534;-70
2023/08/29 01:46:30;;;;;;;6.70;4.07;;;14.20;99.90;;;;;;4879111;29;20056;-70
2023/08/29 01:49:01;;;;;;;5.47;3.70;;;14.20;99.90;;;;;;4877361;29;20526;-70
2023/08/29 01:51:27;;;;;;;5.60;3.97;;;14.20;99.90;;;;;;4877656;29;20057;-70
2023/08/29 01:53:54;;;;;;;6.35;4.32;;;14.20;99.90;;;;;;4877382;29;20067;-70
2023/08/29 01:56:20;;;;;;;5.43;3.50;;;14.20;99.90;;;;;;4879105;29;20053;-70
2023/08/29 01:58:48;;;;;;;6.60;3.90;;;14.10;99.90;;;;;;4862157;29;20049;-69
2023/08/29 02:01:14;;;;;;;6.10;4.00;;;14.20;99.90;;;;;;4878963;29;20057;-68
2023/08/29 02:03:40;;;;;;;5.00;3.40;;;14.10;99.90;;;;;;4877878;29;20484;-73
2023/08/29 02:06:06;;;;;;;6.95;3.80;;;14.10;99.90;;;;;;4878825;29;20053;-69
2023/08/29 02:08:32;;;;;;;6.90;3.45;;;14.10;99.90;;;;;;4876532;29;20344;-70
2023/08/29 02:10:58;;;;;;;6.20;3.60;;;14.10;99.90;;;;;;4861958;29;20139;-70
2023/08/29 02:13:23;;;;;;;6.75;3.83;;;14.00;99.90;;;;;;4877562;29;20208;-70
2023/08/29 02:15:49;;;;;;;6.70;3.67;;;14.00;99.90;;;;;;4877157;29;20432;-69
2023/08/29 02:18:15;;;;;;;5.47;3.53;;;14.00;99.90;;;;;;4878885;29;20045;-70
2023/08/29 02:20:40;;;;;;;4.95;3.85;;;14.00;99.90;;;;;;4877246;29;20072;-70
2023/08/29 02:23:06;;;;;;;5.40;3.95;;;13.90;99.90;;;;;;4878170;29;20161;-69
2023/08/29 02:25:32;;;;;;;5.85;3.92;;;13.90;99.90;;;;;;4862155;29;20101;-70
2023/08/29 02:27:58;;;;;;;6.07;4.20;;;13.90;99.90;;;;;;4876819;29;20101;-70
2023/08/29 02:30:24;;;;;;;6.15;4.00;;;13.90;99.90;;;;;;4862103;29;20095;-70
2023/08/29 02:32:49;;;;;;;7.60;4.18;;;13.90;99.90;;;;;;4878280;29;20045;-69
2023/08/29 02:35:15;;;;;;;5.03;4.15;;;14.00;99.90;;;;;;4877413;29;20494;-70
2023/08/29 02:37:41;;;;;;;6.60;4.13;;;13.90;99.90;;;;;;4877587;29;20095;-69
2023/08/29 02:40:08;;;;;;;9.02;4.53;;;13.90;99.90;;;;;;4846265;29;20048;-70
2023/08/29 02:42:35;;;;;;;5.97;4.20;;;13.90;99.90;;;;;;4861959;29;20056;-70
2023/08/29 02:45:01;;;;;;;6.45;3.85;;;13.90;99.90;;;;;;4877230;29;20053;-70
2023/08/29 02:47:26;;;;;;;6.07;4.65;;;13.90;99.90;;;;;;4878458;29;20048;-69
2023/08/29 02:49:52;;;;;;;5.78;4.32;;;13.90;99.90;;;;;;4877824;29;20049;-71
2023/08/29 02:52:18;;;;;;;5.88;4.15;;;13.90;99.90;;;;;;4878466;29;20056;-69
2023/08/29 02:54:44;;;;;;;6.90;4.20;;;13.90;99.90;;;;;;4877021;29;20044;-69
2023/08/29 02:57:10;;;;;;;7.90;4.78;;;13.80;99.90;;;;;;4876979;29;20235;-69
2023/08/29 02:59:35;;;;;;;8.35;4.43;;;13.80;99.90;;;;;;4877385;29;20045;-69
2023/08/29 03:02:03;;;;;;;5.82;4.07;;;13.80;99.90;;;;;;4878029;29;20231;-69
2023/08/29 03:04:30;;;;;;;6.93;4.65;;;13.80;99.90;;;;;;4878456;29;20056;-69
2023/08/29 03:06:56;;;;;;;6.75;4.25;;;13.80;99.90;;;;;;4876616;29;20423;-69
2023/08/29 03:09:21;;;;;;;7.20;4.40;;;13.80;99.90;;;;;;4877057;29;20596;-69
2023/08/29 03:11:48;;;;;;;6.70;4.93;;;13.80;99.90;;;;;;4878219;29;20135;-69
2023/08/29 03:14:14;;;;;;;7.18;4.47;;;13.80;99.90;;;;;;4877911;29;20147;-70
2023/08/29 03:16:40;;;;;;;6.32;4.18;;;13.70;99.90;;;;;;4878052;29;20045;-70
2023/08/29 03:19:06;;;;;;;6.18;4.35;;;13.70;99.90;;;;;;4879293;29;20357;-70
2023/08/29 03:21:31;;;;;;;8.02;4.53;;;13.70;99.90;;;;;;4880159;29;20056;-70
2023/08/29 03:23:57;;;;;;;6.00;4.05;;;13.70;99.90;;;;;;4881456;29;20148;-70
2023/08/29 03:26:23;;;;;;;5.70;4.00;;;13.60;99.90;;;;;;4865251;29;20145;-70
2023/08/29 03:28:48;;;;;;;5.68;3.95;;;13.60;99.90;;;;;;4881796;29;20045;-69
2023/08/29 03:31:16;;;;;;;7.28;4.68;;;13.60;99.90;;;;;;4864672;29;20053;-69
2023/08/29 03:33:43;;;;;;;5.97;4.20;;;13.60;99.90;;;;;;4865145;29;20049;-70
2023/08/29 03:36:10;;;;;;;9.95;4.82;;;13.60;99.90;;;;;;4881320;29;20137;-70
2023/08/29 03:38:40;;;;;;;7.20;4.50;;;13.60;99.90;;;;;;4880557;29;20056;-69
2023/08/29 03:41:06;;;;;;;6.60;4.60;;;13.60;99.90;;;;;;4879962;29;20048;-70
2023/08/29 03:43:36;;;;;;;6.07;4.25;;;13.60;99.90;;;;;;4880520;29;20136;-69
2023/08/29 03:46:07;;;;;;;7.10;4.75;;;13.60;99.90;;;;;;4864578;29;20475;-69
2023/08/29 03:48:36;;;;;;;5.38;4.45;;;13.60;99.90;;;;;;4881320;29;20051;-69
2023/08/29 03:51:05;;;;;;;7.43;4.40;;;13.60;99.90;;;;;;4865178;29;20124;-69
2023/08/29 03:53:36;;;;;;;6.18;4.80;;;13.60;99.90;;;;;;4864958;29;20053;-70
2023/08/29 03:56:05;;;;;;;6.65;4.75;;;13.60;99.90;;;;;;4880931;29;20370;-71
2023/08/29 03:58:32;;;;;;;6.07;5.30;;;13.60;99.90;;;;;;4880269;29;20063;-70
2023/08/29 04:00:58;;;;;;;6.75;4.85;;;13.50;99.90;;;;;;4880164;29;20057;-69
2023/08/29 04:03:24;;;;;;;7.03;4.82;;;13.50;99.90;;;;;;4864137;29;20064;-70
2023/08/29 04:05:50;;;;;;;8.77;4.60;;;13.50;99.90;;;;;;4881229;29;20136;-68
2023/08/29 04:08:15;;;;;;;9.57;4.93;;;13.50;99.90;;;;;;4864004;29;20132;-69
2023/08/29 04:10:41;;;;;;;8.18;4.55;;;13.50;99.90;;;;;;4880973;29;20052;-69
2023/08/29 04:13:08;;;;;;;6.07;4.28;;;13.40;99.90;;;;;;4880311;29;20049;-69
2023/08/29 04:15:34;;;;;;;6.75;4.65;;;13.40;99.90;;;;;;4879625;29;20189;-70
2023/08/29 04:18:01;;;;;;;6.43;4.78;;;13.40;99.90;;;;;;4880771;29;20056;-69
2023/08/29 04:20:28;;;;;;;7.03;4.88;;;13.40;99.90;;;;;;4881232;29;20392;-70
2023/08/29 04:22:54;;;;;;;7.22;4.57;;;13.40;99.90;;;;;;4879242;29;20069;-70
2023/08/29 04:25:20;;;;;;;5.75;4.40;;;13.40;99.90;;;;;;4879237;29;20056;-69
2023/08/29 04:27:48;;;;;;;6.78;4.50;;;13.30;99.90;;;;;;4864034;29;20048;-70
2023/08/29 04:30:13;;;;;;;6.32;4.10;;;13.30;99.90;;;;;;4878534;29;20053;-70
2023/08/29 04:32:39;;;;;;;6.97;4.53;;;13.30;99.90;;;;;;4879504;29;20050;-70
2023/08/29 04:35:06;;;;;;;6.65;4.55;;;13.30;99.90;;;;;;4879610;29;20045;-74
2023/08/29 04:37:35;;;;;;;6.90;4.63;;;13.30;99.90;;;;;;4880547;29;20044;-69
2023/08/29 04:40:06;;;;;;;6.00;4.20;;;13.30;99.90;;;;;;4879296;29;20056;-69
2023/08/29 04:42:32;;;;;;;5.80;4.63;;;13.20;99.90;;;;;;4878848;29;20109;-70
2023/08/29 04:44:59;;;;;;;6.20;4.50;;;13.20;99.90;;;;;;4880320;29;20460;-69
2023/08/29 04:47:25;;;;;;;6.10;4.40;;;13.10;99.90;;;;;;4879606;29;20045;-69
2023/08/29 04:49:51;;;;;;;7.68;4.65;;;13.20;99.90;;;;;;4863687;29;20395;-68
2023/08/29 04:52:16;;;;;;;6.78;4.72;;;13.10;99.90;;;;;;4863248;29;20052;-69
2023/08/29 04:54:42;;;;;;;7.47;4.72;;;13.10;99.90;;;;;;4878930;29;20133;-72
2023/08/29 04:57:08;;;;;;;6.53;4.57;;;13.10;99.90;;;;;;4879936;29;20438;-71
2023/08/29 04:59:33;;;;;;;7.78;4.93;;;13.10;99.90;;;;;;4878508;29;20053;-70
2023/08/29 05:01:59;;;;;;;5.95;4.13;;;13.00;99.90;;;;;;4863914;29;20484;-70
2023/08/29 05:04:25;;;;;;;5.07;4.10;;;13.00;99.90;;;;;;4879778;29;20049;-70
2023/08/29 05:06:50;;;;;;;5.25;4.60;;;13.00;99.90;;;;;;4878677;29;20045;-69
2023/08/29 05:09:16;;;;;;;5.18;4.20;;;13.00;99.90;;;;;;4879627;29;20045;-70
2023/08/29 05:11:42;;;;;;;6.38;4.50;;;13.10;99.90;;;;;;4863152;29;20087;-70
2023/08/29 05:14:07;;;;;;;6.07;4.47;;;13.10;99.90;;;;;;4878572;29;20060;-69
2023/08/29 05:16:33;;;;;;;6.72;4.75;;;13.10;99.90;;;;;;4878473;29;20112;-69
2023/08/29 05:18:59;;;;;;;6.60;4.43;;;13.10;99.90;;;;;;4879951;29;20049;-68
2023/08/29 05:21:25;;;;;;;6.32;4.60;;;13.20;99.90;;;;;;4878993;29;20102;-69
2023/08/29 05:23:51;;;;;;;5.72;4.28;;;13.20;99.90;;;;;;4879195;29;20056;-69
2023/08/29 05:26:16;;;;;;;8.32;4.38;;;13.20;99.90;;;;;;4879276;29;20127;-71
2023/08/29 05:28:42;;;;;;;6.00;4.60;;;13.20;99.90;;;;;;4879473;29;20045;-69
2023/08/29 05:31:08;;;;;;;5.88;4.32;;;13.30;99.90;;;;;;4878265;29;20056;-68
2023/08/29 05:33:34;;;;;;;5.63;4.18;;;13.30;99.90;;;;;;4847165;29;20064;-68
2023/08/29 05:36:00;;;;;;;6.03;4.10;;;13.40;99.90;;;;;;4862861;29;20129;-72
2023/08/29 05:38:27;;;;;;;6.60;4.10;;;13.50;99.90;;;;;;4878805;29;20072;-69
2023/08/29 05:40:53;;;;;;;6.43;4.07;;;13.80;99.90;;;;;;4878160;29;20076;-70
2023/08/29 05:43:19;;;;;;;5.38;4.18;;;14.20;99.90;;;;;;4877101;29;20049;-72
2023/08/29 05:45:45;;;;;;;7.05;4.05;;;14.90;99.90;;;;;;4878087;29;20097;-70
2023/08/29 05:48:11;;;;;;;5.32;3.60;;;15.60;99.90;;;;;;4878605;29;20161;-69
2023/08/29 05:50:40;;;;;;;5.78;3.42;;;16.20;99.90;;;;;;4878088;29;20275;-70
2023/08/29 05:53:06;;;;;;;4.78;2.97;;;16.70;99.90;;;;;;4879226;29;20049;-69
2023/08/29 05:55:33;;;;;;;5.32;3.30;;;17.00;99.90;;;;;;4877736;29;20407;-70
2023/08/29 05:57:59;;;;;;;4.97;3.17;;;17.50;99.90;;;;;;4878927;29;20105;-69
2023/08/29 06:00:25;;;;;;;6.97;3.22;;;18.00;99.90;;;;;;4878551;29;20053;-69
2023/08/29 06:02:52;;;;;;;5.20;3.40;;;18.60;99.90;;;;;;4862413;29;20048;-70
2023/08/29 06:05:18;;;;;;;4.45;2.78;;;19.10;99.90;;;;;;4878050;29;20400;-69
2023/08/29 06:07:44;;;;;;;4.35;3.20;;;19.60;99.90;;;;;;4861985;29;20059;-68
2023/08/29 06:10:10;;;;;;;5.25;3.50;;;20.30;99.90;;;;;;4878744;29;20053;-70
2023/08/29 06:12:35;;;;;;;4.93;2.90;;;20.80;99.90;;;;;;4878568;29;20076;-70
2023/08/29 06:15:01;;;;;;;6.55;2.80;;;21.00;99.90;;;;;;4878568;29;20501;-69
2023/08/29 06:17:27;;;;;;;4.50;2.60;;;20.60;99.90;;;;;;4876994;29;20045;-69
2023/08/29 06:19:52;;;;;;;4.40;2.78;;;20.30;99.90;;;;;;4862335;29;20059;-70
2023/08/29 06:22:18;;;;;;;6.57;2.50;;;20.20;99.90;;;;;;4876988;29;20077;-69
2023/08/29 06:24:44;;;;;;;4.05;2.53;;;20.00;99.90;;;;;;4877987;29;20521;-70
2023/08/29 06:27:10;;;;;;;4.70;2.40;;;20.10;99.90;;;;;;4878317;29;20132;-70
2023/08/29 06:29:35;;;;;;;6.35;2.92;;;20.10;99.90;;;;;;4877984;29;20124;-70
2023/08/29 06:32:01;;;;;;;3.75;2.25;;;20.40;99.90;;;;;;4877340;29;20109;-69
2023/08/29 06:34:27;;;;;;;5.38;2.30;;;20.40;99.90;;;;;;4876914;29;20049;-73
2023/08/29 06:36:53;;;;;;;12.38;2.55;;;20.20;99.90;;;;;;4878526;29;20049;-68
2023/08/29 06:39:19;;;;;;;5.78;2.00;;;20.20;99.90;;;;;;4861804;29;20449;-70
2023/08/29 06:41:45;;;;;;;5.55;2.50;;;20.30;99.90;;;;;;4876836;29;20053;-68
2023/08/29 06:44:11;;;;;;;4.18;1.90;;;20.80;99.90;;;;;;4878456;29;20459;-69
2023/08/29 06:46:38;;;;;;;4.15;1.80;;;21.40;99.90;;;;;;4876795;29;20080;-70
2023/08/29 06:49:05;;;;;;;4.68;1.60;;;21.90;99.90;;;;;;4878442;29;20053;-69
2023/08/29 06:51:31;;;;;;;3.45;1.77;;;22.40;99.90;;;;;;4876699;29;20096;-69
2023/08/29 06:53:57;;;;;;;3.38;1.50;;;22.70;99.90;;;;;;4878239;29;20049;-69
2023/08/29 06:56:23;;;;;;;5.13;2.05;;;22.90;99.90;;;;;;4881097;29;20103;-71
2023/08/29 06:58:49;;;;;;;2.17;1.60;;;22.70;99.90;;;;;;4880314;29;20499;-72
2023/08/29 07:01:15;;;;;;;5.22;1.85;;;22.60;99.90;;;;;;4881064;29;20080;-70
2023/08/29 07:03:40;;;;;;;2.50;1.70;;;22.40;99.90;;;;;;4881727;29;20492;-70
2023/08/29 07:06:06;;;;;;;2.08;1.40;;;22.10;99.90;;;;;;4881092;29;20497;-71
2023/08/29 07:08:32;;;;;;;7.80;1.83;;;21.80;99.90;;;;;;4880700;29;20056;-74
2023/08/29 07:10:58;;;;;;;2.55;1.40;;;21.80;99.90;;;;;;4865605;29;20049;-69
2023/08/29 07:13:24;;;;;;;1.92;1.40;;;21.80;99.90;;;;;;4865712;29;20064;-71
2023/08/29 07:15:50;;;;;;;2.70;1.38;;;21.70;99.90;;;;;;4881349;29;20444;-70
2023/08/29 07:18:15;;;;;;;3.85;1.50;;;21.60;99.90;;;;;;4849700;29;20123;-71
2023/08/29 07:20:41;;;;;;;2.55;1.42;;;21.60;99.90;;;;;;4880516;29;20128;-70
2023/08/29 07:23:07;;;;;;;2.05;1.38;;;21.70;99.90;;;;;;4881260;29;20057;-70
2023/08/29 07:25:43;;;;;;;2.30;1.33;;;22.10;99.90;;;;;;4880549;29;20150;-70
2023/08/29 07:28:10;;;;;;;2.47;1.50;;;22.50;99.90;;;;;;4881356;29;20484;-71
2023/08/29 07:30:54;;;;;;;3.03;1.27;;;22.80;99.90;;;;;;4864892;29;20063;-74
2023/08/29 07:33:20;;;;;;;1.90;1.30;;;23.10;99.90;;;;;;4881630;29;20523;-73
2023/08/29 07:35:47;;;;;;;3.28;1.30;;;23.20;99.90;;;;;;4864459;29;20052;-70
2023/08/29 07:38:14;;;;;;;2.90;1.33;;;23.10;99.90;;;;;;4881681;29;20127;-69
2023/08/29 07:40:40;;;;;;;2.40;1.20;;;23.00;99.90;;;;;;4864671;29;20057;-71
2023/08/29 07:43:07;;;;;;;2.22;1.20;;;22.80;99.90;;;;;;4864595;29;20060;-72
2023/08/29 07:45:34;;;;;;;3.63;1.40;;;22.70;99.90;;;;;;4880343;29;20167;-70
2023/08/29 07:48:00;;;;;;;2.15;1.40;;;22.60;99.90;;;;;;4880778;29;20140;-71
2023/08/29 07:50:26;;;;;;;3.08;1.25;;;22.60;99.90;;;;;;4881315;29;20139;-70
2023/08/29 07:52:52;;;;;;;2.00;1.30;;;22.50;99.90;;;;;;4880525;29;20132;-70
2023/08/29 07:55:18;;;;;;;2.83;1.40;;;22.60;99.90;;;;;;4879990;29;20136;-72
2023/08/29 07:57:44;;;;;;;3.28;1.50;;;22.60;99.90;;;;;;4880792;29;20048;-70
2023/08/29 08:00:11;;;;;;;4.75;1.50;;;22.50;99.90;;;;;;4864848;29;20049;-72
2023/08/29 08:02:40;;;;;;;2.45;1.58;;;22.40;99.90;;;;;;4881117;29;20056;-72
2023/08/29 08:05:10;;;;;;;3.80;1.83;;;22.30;99.90;;;;;;4879564;29;20511;-72
2023/08/29 08:07:36;;;;;;;2.33;1.40;;;22.30;99.90;;;;;;4879288;29;20072;-72
2023/08/29 08:10:04;;;;;;;3.70;1.52;;;22.20;99.90;;;;;;4879936;29;20099;-73
2023/08/29 08:12:31;;;;;;;5.55;1.55;;;22.10;99.90;;;;;;4880414;29;20123;-74
2023/08/29 08:14:56;;;;;;;2.63;1.50;;;22.20;99.90;;;;;;4878420;29;20079;-73
2023/08/29 08:17:22;;;;;;;2.67;1.55;;;22.30;99.90;;;;;;4878979;29;20382;-72
2023/08/29 08:19:48;;;;;;;3.78;1.80;;;22.60;99.90;;;;;;4878519;29;20063;-74
2023/08/29 08:22:14;;;;;;;4.38;1.50;;;22.80;99.90;;;;;;4877916;29;20065;-72
2023/08/29 08:24:40;;;;;;;3.70;1.60;;;23.10;99.90;;;;;;4880297;29;20053;-71
2023/08/29 08:27:07;;;;;;;3.20;1.50;;;23.20;99.90;;;;;;4863757;29;20205;-73
2023/08/29 08:29:33;;;;;;;4.15;1.73;;;23.40;99.90;;;;;;4879761;29;20452;-72
2023/08/29 08:31:59;;;;;;;3.67;1.50;;;23.40;99.90;;;;;;4879693;29;20544;-72
2023/08/29 08:34:25;;;;;;;2.35;1.50;;;23.50;99.90;;;;;;4880320;29;20052;-72
2023/08/29 08:36:51;;;;;;;1.98;1.40;;;23.60;99.90;;;;;;4878686;29;20127;-71
2023/08/29 08:39:17;;;;;;;2.25;1.50;;;23.80;99.90;;;;;;4880416;29;20133;-69
2023/08/29 08:41:43;;;;;;;2.03;1.38;;;24.10;99.90;;;;;;4879165;29;20131;-70
2023/08/29 08:44:11;;;;;;;2.90;1.75;;;24.50;99.90;;;;;;4878597;29;20041;-71
2023/08/29 08:46:37;;;;;;;2.42;1.23;;;24.80;99.90;;;;;;4879304;29;20133;-71
2023/08/29 08:49:04;;;;;;;2.35;1.40;;;25.10;99.90;;;;;;4879924;29;20075;-74
2023/08/29 08:51:31;;;;;;;4.38;1.50;;;25.40;99.90;;;;;;4879911;29;20056;-70
2023/08/29 08:53:57;;;;;;;2.30;1.40;;;25.40;99.90;;;;;;4863007;29;20059;-70
2023/08/29 08:56:24;;;;;;;2.85;1.60;;;25.20;99.90;;;;;;4878520;29;20053;-71
2023/08/29 08:58:50;;;;;;;3.50;1.40;;;25.00;99.90;;;;;;4878640;29;20088;-75
2023/08/29 09:01:15;;;;;;;2.80;1.15;;;24.90;99.90;;;;;;4878758;29;20467;-70
2023/08/29 09:03:42;;;;;;;3.75;1.40;;;24.60;99.90;;;;;;4878797;29;20124;-71
2023/08/29 09:06:09;;;;;;;8.15;1.48;;;24.70;99.90;;;;;;4879444;29;20045;-71
2023/08/29 09:08:36;;;;;;;1.88;1.23;;;24.90;99.90;;;;;;4879930;29;20503;-71
2023/08/29 09:11:03;;;;;;;3.00;1.20;;;25.20;99.90;;;;;;4878451;29;20056;-70
2023/08/29 09:13:30;;;;;;;2.70;1.30;;;25.40;99.80;;;;;;4878586;29;20053;-72
2023/08/29 09:15:58;;;;;;;1.92;1.30;;;25.50;99.50;;;;;;4879479;29;20464;-71
2023/08/29 09:18:26;;;;;;;2.00;1.33;;;25.60;98.90;;;;;;4862983;29;20052;-71
2023/08/29 09:20:57;;;;;;;4.93;1.27;;;25.60;98.70;;;;;;4878747;29;20143;-70
2023/08/29 09:23:25;;;;;;;2.92;1.27;;;25.40;98.50;;;;;;4878277;29;20057;-73
2023/08/29 09:26:11;;;;;;;1.60;1.30;;;25.30;98.60;;;;;;4879676;29;20052;-72
2023/08/29 09:28:38;;;;;;;3.33;1.30;;;25.20;98.40;;;;;;4879337;29;20089;-72
2023/08/29 09:31:08;;;;;;;1.90;1.40;;;25.30;99.00;;;;;;4878183;29;20132;-71
2023/08/29 09:33:35;;;;;;;3.78;1.60;;;25.40;98.90;;;;;;4879979;29;20056;-74
2023/08/29 09:36:02;;;;;;;2.05;1.45;;;25.40;99.20;;;;;;4878137;29;20404;-73
2023/08/29 09:38:30;;;;;;;3.65;1.83;;;25.30;99.00;;;;;;4878244;29;20081;-73
2023/08/29 09:40:55;;;;;;;2.88;1.60;;;25.00;99.10;;;;;;4879355;29;20053;-72
2023/08/29 09:43:21;;;;;;;3.20;1.50;;;24.80;99.30;;;;;;4862251;29;20057;-72
2023/08/29 09:45:52;;;;;;;3.50;1.75;;;24.60;99.50;;;;;;4878004;29;20053;-73
2023/08/29 09:48:18;;;;;;;2.90;2.05;;;24.50;99.30;;;;;;4877393;29;20045;-71
2023/08/29 09:50:45;;;;;;;2.72;1.70;;;24.40;99.60;;;;;;4877912;29;20057;-70
2023/08/29 09:53:17;;;;;;;2.40;1.70;;;24.30;99.70;;;;;;4878746;29;20455;-70
2023/08/29 09:55:52;;;;;;;3.35;1.73;;;24.20;99.90;;;;;;4877689;29;20059;-70
2023/08/29 09:58:21;;;;;;;2.95;1.63;;;24.20;99.80;;;;;;4877798;29;20071;-70
2023/08/29 10:00:47;;;;;;;4.70;1.60;;;24.20;99.90;;;;;;4878598;29;20513;-72
2023/08/29 10:03:14;;;;;;;2.67;1.50;;;24.10;99.70;;;;;;4878656;29;20396;-70
2023/08/29 10:05:42;;;;;;;4.10;1.98;;;24.00;99.90;;;;;;4879181;29;20049;-69
2023/08/29 10:08:11;;;;;;;3.00;2.00;;;23.90;99.80;;;;;;4878017;29;20452;-70
2023/08/29 10:10:42;;;;;;;4.05;2.20;;;23.70;99.90;;;;;;4876508;29;20136;-71
2023/08/29 10:13:09;;;;;;;3.05;1.90;;;23.50;99.90;;;;;;4877369;29;20075;-72
2023/08/29 10:15:36;;;;;;;3.40;1.70;;;23.40;99.90;;;;;;4878674;29;20084;-70
2023/08/29 10:18:02;;;;;;;3.88;1.90;;;23.50;99.90;;;;;;4862144;29;20112;-71
2023/08/29 10:20:29;;;;;;;5.15;1.70;;;23.50;99.90;;;;;;4878630;29;20087;-71
2023/08/29 10:22:55;;;;;;;3.25;1.50;;;23.50;99.90;;;;;;4877710;29;20069;-72
2023/08/29 10:25:21;;;;;;;6.40;1.55;;;23.60;99.90;;;;;;4875535;29;20507;-70
2023/08/29 10:27:49;;;;;;;2.60;1.40;;;23.70;99.90;;;;;;4876782;29;20049;-70
2023/08/29 10:30:15;;;;;;;3.38;1.60;;;23.70;99.90;;;;;;4877833;29;20057;-70
2023/08/29 10:32:43;;;;;;;5.35;1.80;;;23.70;99.90;;;;;;4877714;29;20053;-71
2023/08/29 10:35:20;;;;;;;3.70;1.55;;;23.80;99.90;;;;;;4876989;29;20193;-72
2023/08/29 10:37:52;;;;;;;3.20;1.80;;;23.70;99.90;;;;;;4877363;29;20120;-71
2023/08/29 10:40:20;;;;;;;3.40;1.60;;;23.70;99.90;;;;;;4861748;29;20049;-71
2023/08/29 10:42:53;;;;;;;6.13;1.73;;;23.70;99.90;;;;;;4877411;29;20041;-70
2023/08/29 10:45:40;;;;;;;2.50;1.60;;;23.80;99.90;;;;;;4878307;29;20104;-71
2023/08/29 10:48:05;;;;;;;2.17;1.48;;;23.90;99.90;;;;;;4838924;29;20092;-72
2023/08/29 10:50:33;;;;;;;3.03;1.80;;;23.90;99.90;;;;;;4877858;29;20461;-71
2023/08/29 10:52:59;;;;;;;3.60;1.80;;;24.00;99.90;;;;;;4862007;29;20488;-72
2023/08/29 10:55:32;;;;;;;2.30;1.70;;;24.00;99.70;;;;;;4861375;29;20055;-71
2023/08/29 10:58:01;;;;;;;3.47;1.83;;;24.00;99.80;;;;;;4877292;29;20104;-71
2023/08/29 11:00:42;;;;;;;2.35;1.70;;;23.80;99.60;;;;;;4876673;29;20492;-72
2023/08/29 11:03:08;;;;;;;2.80;1.63;;;23.80;99.40;;;;;;4861716;29;20100;-73
2023/08/29 11:05:40;;;;;;;3.75;1.88;;;24.00;99.40;;;;;;4876784;29;20049;-71
2023/08/29 11:08:21;;;;;;;4.13;1.92;;;24.10;99.30;;;;;;4877878;29;20045;-72
2023/08/29 11:11:16;;;;;;;3.00;1.80;;;24.20;98.60;;;;;;4862084;29;20060;-72
2023/08/29 11:14:06;;;;;;;3.67;1.70;;;24.20;98.50;;;;;;4877599;29;20433;-72
2023/08/29 11:16:37;;;;;;;3.45;1.70;;;24.30;97.30;;;;;;4843599;29;20059;-72
2023/08/29 11:19:13;;;;;;;5.55;1.60;;;24.30;97.40;;;;;;4858922;29;20048;-71
2023/08/29 11:21:48;;;;;;;3.53;1.63;;;24.20;97.40;;;;;;4876762;29;20057;-71
2023/08/29 11:24:15;;;;;;;6.35;1.65;;;24.10;97.90;;;;;;4875138;29;20112;-73
2023/08/29 11:26:43;;;;;;;6.35;2.08;;;24.10;98.50;;;;;;4876726;29;20053;-71
2023/08/29 11:29:09;;;;;;;4.07;1.70;;;24.10;98.20;;;;;;4858589;29;20126;-73
2023/08/29 11:31:43;;;;;;;3.45;1.60;;;24.00;97.70;;;;;;4874110;29;20599;-71
2023/08/29 11:34:17;;;;;;;3.45;1.58;;;24.10;97.10;;;;;;4876611;29;20060;-70
2023/08/29 11:36:48;;;;;;;3.25;1.67;;;24.10;97.20;;;;;;4876404;29;20410;-71
2023/08/29 11:39:17;;;;;;;4.13;1.95;;;24.10;96.90;;;;;;4876509;29;20124;-71
2023/08/29 11:41:43;;;;;;;4.10;2.10;;;24.20;97.10;;;;;;4880004;29;20503;-70
2023/08/29 11:44:10;;;;;;;4.47;2.10;;;24.20;97.10;;;;;;4880216;29;20044;-71
2023/08/29 11:46:36;;;;;;;5.50;2.05;;;24.30;96.80;;;;;;4879410;29;20495;-70
2023/08/29 11:49:15;;;;;;;3.92;2.20;;;24.30;96.90;;;;;;4880661;29;20049;-71
2023/08/29 11:51:42;;;;;;;4.03;2.60;;;24.30;97.30;;;;;;4880837;29;20088;-71
2023/08/29 11:54:46;;;;;;;3.63;2.40;;;24.30;97.60;;;;;;4879649;29;20492;-70
2023/08/29 11:57:13;;;;;;;5.07;2.38;;;24.10;98.10;;;;;;4880161;29;20064;-72
2023/08/29 11:59:43;;;;;;;5.63;2.30;;;24.00;98.40;;;;;;4879285;29;20246;-71
2023/08/29 12:02:17;;;;;;;5.50;2.65;;;24.10;98.20;;;;;;4879643;29;20064;-76
2023/08/29 12:04:47;;;;;;;3.75;2.15;;;24.20;97.90;;;;;;4878884;29;20045;-72
2023/08/29 12:07:17;;;;;;;5.25;2.45;;;24.30;97.30;;;;;;4879362;29;20057;-72
2023/08/29 12:09:45;;;;;;;3.20;1.95;;;24.20;97.10;;;;;;4863977;29;20049;-71
2023/08/29 12:12:35;;;;;;;3.90;2.10;;;24.20;97.10;;;;;;4880776;29;20049;-71
2023/08/29 12:15:06;;;;;;;5.00;2.10;;;24.10;97.00;;;;;;4880956;29;20522;-71
2023/08/29 12:17:39;;;;;;;3.60;1.98;;;24.10;97.40;;;;;;4879404;29;20071;-71
2023/08/29 12:20:14;;;;;;;3.60;2.20;;;24.10;97.80;;;;;;4879399;29;20057;-70
2023/08/29 12:22:50;;;;;;;6.03;2.15;;;24.10;97.80;;;;;;4880258;29;20140;-69
2023/08/29 12:25:16;;;;;;;2.95;1.92;;;24.10;97.90;;;;;;4879632;29;20131;-70
2023/08/29 12:27:45;;;;;;;3.38;2.13;;;24.10;98.00;;;;;;4878999;29;20100;-69
2023/08/29 12:30:16;;;;;;;4.97;2.33;;;24.00;98.00;;;;;;4880531;29;20059;-70
2023/08/29 12:32:45;;;;;;;5.50;2.30;;;24.00;98.10;;;;;;4880072;29;20049;-69
2023/08/29 12:35:13;;;;;;;3.83;2.20;;;23.90;98.10;;;;;;4880280;29;20063;-69
2023/08/29 12:37:38;;;;;;;2.92;2.03;;;23.80;98.30;;;;;;4880054;29;20074;-69
2023/08/29 12:40:08;;;;;;;3.78;2.22;;;23.70;98.60;;;;;;4880334;29;20045;-68
2023/08/29 12:42:38;;;;;;;4.43;2.17;;;23.50;98.30;;;;;;4878479;29;20088;-68
2023/08/29 12:45:05;;;;;;;4.22;2.10;;;23.30;98.60;;;;;;4879054;29;20048;-68
2023/08/29 12:47:30;;;;;;;3.90;2.20;;;23.30;98.70;;;;;;4863093;29;20049;-69
2023/08/29 12:49:56;;;;;;;4.05;2.00;;;23.40;98.80;;;;;;4880073;29;20072;-68
2023/08/29 12:52:22;;;;;;;3.60;1.88;;;23.40;99.00;;;;;;4878359;29;20049;-69